Time;durP1;ratioP1;P1;durP2;ratioP2;P2;SDS_P1;SDS_P2;PMS_P1;PMS_P2;Temp;Humidity;BMP_temperature;BMP_pressure;BME280_temperature;BME280_humidity;BME280_pressure;Samples;Min_cycle;Max_cycle;Signal;HPM_P1;HPM_P2
2022/03/02 00:02:06;;;;;;;22.90;10.18;;;;;;;;;;5051984;28;20120;-63
2022/03/02 00:04:32;;;;;;;23.15;10.88;;;;;;;;;;5050578;28;20029;-64
2022/03/02 00:06:58;;;;;;;27.67;10.70;;;;;;;;;;5032254;28;20026;-63
2022/03/02 00:09:24;;;;;;;24.92;10.80;;;;;;;;;;5032282;28;20101;-63
2022/03/02 00:11:51;;;;;;;32.55;10.85;;;;;;;;;;5046682;28;20045;-64
2022/03/02 00:14:17;;;;;;;29.05;11.00;;;;;;;;;;5051586;28;20033;-64
2022/03/02 00:16:43;;;;;;;28.02;10.70;;;;;;;;;;5052102;28;20482;-63
2022/03/02 00:19:09;;;;;;;24.60;10.82;;;;;;;;;;5052818;28;20552;-64
2022/03/02 00:21:36;;;;;;;25.30;10.57;;;;;;;;;;5055815;28;20078;-63
2022/03/02 00:24:03;;;;;;;21.60;10.38;;;;;;;;;;5055848;28;20108;-63
2022/03/02 00:26:33;;;;;;;21.48;9.90;;;;;;;;;;5055786;28;20478;-64
2022/03/02 00:28:59;;;;;;;28.77;10.45;;;;;;;;;;5055979;28;20032;-63
2022/03/02 00:31:25;;;;;;;22.73;9.68;;;;;;;;;;5055653;28;20074;-63
2022/03/02 00:33:52;;;;;;;33.97;11.20;;;;;;;;;;5044775;28;20030;-63
2022/03/02 00:36:18;;;;;;;23.38;9.80;;;;;;;;;;5035647;28;20524;-63
2022/03/02 00:38:44;;;;;;;26.17;9.18;;;;;;;;;;5035759;28;20052;-63
2022/03/02 00:41:11;;;;;;;35.30;9.73;;;;;;;;;;5035597;28;20447;-63
2022/03/02 00:43:37;;;;;;;20.50;8.77;;;;;;;;;;5035629;28;20053;-63
2022/03/02 00:46:03;;;;;;;20.05;8.35;;;;;;;;;;5035569;28;20057;-63
2022/03/02 00:48:29;;;;;;;17.08;8.80;;;;;;;;;;5043562;28;20041;-63
2022/03/02 00:50:55;;;;;;;19.85;8.77;;;;;;;;;;5055518;28;20032;-63
2022/03/02 00:53:22;;;;;;;23.75;8.45;;;;;;;;;;5055425;28;20029;-64
2022/03/02 00:55:48;;;;;;;25.55;8.52;;;;;;;;;;5055399;28;20079;-63
2022/03/02 00:58:14;;;;;;;30.90;8.55;;;;;;;;;;5055224;28;20032;-64
2022/03/02 01:00:40;;;;;;;28.58;9.18;;;;;;;;;;5055431;28;20049;-63
2022/03/02 01:03:06;;;;;;;19.73;8.57;;;;;;;;;;5054309;28;20017;-63
2022/03/02 01:05:33;;;;;;;16.25;7.38;;;;;;;;;;5055249;28;20033;-63
2022/03/02 01:07:59;;;;;;;20.67;7.22;;;;;;;;;;5055208;28;20028;-63
2022/03/02 01:10:25;;;;;;;19.38;7.30;;;;;;;;;;5054970;28;20400;-63
2022/03/02 01:12:51;;;;;;;21.70;7.05;;;;;;;;;;5053890;28;20049;-63
2022/03/02 01:15:17;;;;;;;16.98;7.38;;;;;;;;;;5053727;28;20029;-63
2022/03/02 01:17:44;;;;;;;13.63;6.35;;;;;;;;;;5052554;28;20465;-63
2022/03/02 01:20:11;;;;;;;17.67;7.32;;;;;;;;;;5033731;28;20091;-63
2022/03/02 01:22:37;;;;;;;19.15;7.75;;;;;;;;;;5033915;28;20028;-63
2022/03/02 01:25:04;;;;;;;25.45;7.13;;;;;;;;;;5033748;28;20508;-63
2022/03/02 01:27:30;;;;;;;19.58;7.30;;;;;;;;;;5038676;28;20033;-63
2022/03/02 01:29:57;;;;;;;18.70;7.95;;;;;;;;;;5053287;28;20025;-63
2022/03/02 01:32:23;;;;;;;22.73;7.30;;;;;;;;;;5052445;28;20039;-63
2022/03/02 01:34:49;;;;;;;16.02;6.93;;;;;;;;;;5053745;28;20036;-63
2022/03/02 01:37:16;;;;;;;11.95;6.47;;;;;;;;;;5053173;28;20112;-63
2022/03/02 01:39:43;;;;;;;16.63;6.43;;;;;;;;;;5047085;28;20127;-63
2022/03/02 01:42:09;;;;;;;19.45;6.47;;;;;;;;;;5033434;28;20037;-63
2022/03/02 01:44:35;;;;;;;18.75;7.20;;;;;;;;;;5033406;28;20067;-63
2022/03/02 01:47:02;;;;;;;22.83;7.10;;;;;;;;;;5048380;28;20025;-64
2022/03/02 01:49:28;;;;;;;17.02;6.03;;;;;;;;;;5052078;28;20029;-63
2022/03/02 01:51:54;;;;;;;15.05;6.30;;;;;;;;;;5053582;28;20027;-63
2022/03/02 01:54:20;;;;;;;17.92;6.75;;;;;;;;;;5052980;28;20071;-63
2022/03/02 01:56:48;;;;;;;17.77;6.80;;;;;;;;;;5053386;28;20033;-63
2022/03/02 01:59:14;;;;;;;16.02;6.57;;;;;;;;;;5052569;28;20036;-63
2022/03/02 02:01:41;;;;;;;28.73;6.25;;;;;;;;;;5052711;28;20502;-64
2022/03/02 02:04:07;;;;;;;14.75;6.55;;;;;;;;;;5049045;28;20026;-63
2022/03/02 02:06:34;;;;;;;12.82;6.47;;;;;;;;;;5037950;28;20068;-63
2022/03/02 02:09:00;;;;;;;18.55;6.28;;;;;;;;;;5042836;28;20025;-63
2022/03/02 02:11:27;;;;;;;17.58;6.85;;;;;;;;;;5009525;28;1242160;-63
2022/03/02 02:13:53;;;;;;;12.75;6.70;;;;;;;;;;5054095;28;20028;-63
2022/03/02 02:16:23;;;;;;;20.98;7.28;;;;;;;;;;5053416;28;20029;-63
2022/03/02 02:18:50;;;;;;;22.17;7.32;;;;;;;;;;5054155;28;20489;-63
2022/03/02 02:21:16;;;;;;;16.25;7.32;;;;;;;;;;5053091;28;20416;-63
2022/03/02 02:23:42;;;;;;;23.63;7.53;;;;;;;;;;5053887;28;20378;-64
2022/03/02 02:26:09;;;;;;;19.95;7.82;;;;;;;;;;5053836;28;20488;-63
2022/03/02 02:28:35;;;;;;;22.00;7.97;;;;;;;;;;5053192;28;20036;-63
2022/03/02 02:31:02;;;;;;;20.10;8.68;;;;;;;;;;5053838;28;20032;-63
2022/03/02 02:33:28;;;;;;;18.15;7.32;;;;;;;;;;5053421;28;20025;-63
2022/03/02 02:35:55;;;;;;;25.45;7.57;;;;;;;;;;5052784;28;20105;-63
2022/03/02 02:38:21;;;;;;;23.60;7.45;;;;;;;;;;5033225;28;20022;-63
2022/03/02 02:40:51;;;;;;;21.25;6.88;;;;;;;;;;5037651;28;20029;-63
2022/03/02 02:43:19;;;;;;;21.95;7.63;;;;;;;;;;5053017;28;20064;-63
2022/03/02 02:45:45;;;;;;;16.15;7.07;;;;;;;;;;5053262;28;20016;-63
2022/03/02 02:48:11;;;;;;;15.73;6.63;;;;;;;;;;5053489;28;20124;-64
2022/03/02 02:50:37;;;;;;;19.52;5.90;;;;;;;;;;5052937;28;20029;-63
2022/03/02 02:53:06;;;;;;;18.13;7.00;;;;;;;;;;5046184;28;20048;-63
2022/03/02 02:55:33;;;;;;;22.80;7.05;;;;;;;;;;5032800;28;20041;-63
2022/03/02 02:57:59;;;;;;;22.10;7.28;;;;;;;;;;5040943;28;20024;-63
2022/03/02 03:00:27;;;;;;;16.20;6.32;;;;;;;;;;5049559;28;20030;-63
2022/03/02 03:02:54;;;;;;;18.02;6.05;;;;;;;;;;5033081;28;20100;-64
2022/03/02 03:05:22;;;;;;;14.73;6.45;;;;;;;;;;5033055;28;20121;-63
2022/03/02 03:07:49;;;;;;;14.40;5.45;;;;;;;;;;5032927;28;20298;-63
2022/03/02 03:10:15;;;;;;;21.95;7.47;;;;;;;;;;5043516;28;20052;-64
2022/03/02 03:12:46;;;;;;;17.25;6.00;;;;;;;;;;5032269;28;20049;-63
2022/03/02 03:15:13;;;;;;;17.88;6.10;;;;;;;;;;5032853;28;20489;-64
2022/03/02 03:17:40;;;;;;;16.63;6.40;;;;;;;;;;5032618;28;20025;-64
2022/03/02 03:20:07;;;;;;;17.73;6.47;;;;;;;;;;5032849;28;20021;-63
2022/03/02 03:22:33;;;;;;;12.43;6.22;;;;;;;;;;5032929;28;20029;-64
2022/03/02 03:24:59;;;;;;;13.50;5.70;;;;;;;;;;5032739;28;20030;-63
2022/03/02 03:27:26;;;;;;;19.33;5.88;;;;;;;;;;5033182;28;20466;-63
2022/03/02 03:29:52;;;;;;;20.67;6.70;;;;;;;;;;5032790;28;20025;-64
2022/03/02 03:32:18;;;;;;;16.65;7.35;;;;;;;;;;5032755;28;20083;-64
2022/03/02 03:34:44;;;;;;;12.90;5.50;;;;;;;;;;5032386;28;20034;-64
2022/03/02 03:37:11;;;;;;;12.70;5.53;;;;;;;;;;5032658;28;20437;-64
2022/03/02 03:39:37;;;;;;;19.73;7.15;;;;;;;;;;5032265;28;20037;-64
2022/03/02 03:42:03;;;;;;;26.52;6.60;;;;;;;;;;5051552;28;20041;-63
2022/03/02 03:44:29;;;;;;;16.27;5.25;;;;;;;;;;5051095;28;20018;-64
2022/03/02 03:46:55;;;;;;;25.77;5.50;;;;;;;;;;5032489;28;20021;-64
2022/03/02 03:49:21;;;;;;;18.17;5.82;;;;;;;;;;5040926;28;20043;-63
2022/03/02 03:51:48;;;;;;;15.43;5.43;;;;;;;;;;5052320;28;20112;-63
2022/03/02 03:54:14;;;;;;;12.07;5.55;;;;;;;;;;5052077;28;20083;-63
2022/03/02 03:56:40;;;;;;;19.08;5.03;;;;;;;;;;5051060;28;20449;-64
2022/03/02 03:59:07;;;;;;;13.70;5.82;;;;;;;;;;5046417;28;20025;-63
2022/03/02 04:01:34;;;;;;;15.18;6.13;;;;;;;;;;5030604;28;20108;-63
2022/03/02 04:04:00;;;;;;;16.92;5.28;;;;;;;;;;5032359;28;20022;-64
2022/03/02 04:06:26;;;;;;;15.75;5.40;;;;;;;;;;5031901;28;20493;-63
2022/03/02 04:08:53;;;;;;;11.35;5.55;;;;;;;;;;5032142;28;20029;-64
2022/03/02 04:11:19;;;;;;;11.93;5.78;;;;;;;;;;5031787;28;20045;-64
2022/03/02 04:13:45;;;;;;;13.30;5.65;;;;;;;;;;5032002;28;20436;-63
2022/03/02 04:16:11;;;;;;;17.17;6.60;;;;;;;;;;5050958;28;20041;-64
2022/03/02 04:18:37;;;;;;;15.80;6.53;;;;;;;;;;5051849;28;20116;-63
2022/03/02 04:21:04;;;;;;;16.27;5.80;;;;;;;;;;5051694;28;20056;-63
2022/03/02 04:23:30;;;;;;;14.38;5.55;;;;;;;;;;5051813;28;20489;-64
2022/03/02 04:25:56;;;;;;;14.48;5.18;;;;;;;;;;5051590;28;20036;-63
2022/03/02 04:28:22;;;;;;;23.98;5.60;;;;;;;;;;5051872;28;20021;-63
2022/03/02 04:30:48;;;;;;;12.15;5.78;;;;;;;;;;5046650;28;20537;-63
2022/03/02 04:33:15;;;;;;;16.00;5.30;;;;;;;;;;5031815;28;20127;-63
2022/03/02 04:35:41;;;;;;;14.95;5.40;;;;;;;;;;5031657;28;20037;-64
2022/03/02 04:38:07;;;;;;;18.83;6.10;;;;;;;;;;5040455;28;20043;-64
2022/03/02 04:40:34;;;;;;;13.98;5.38;;;;;;;;;;5051209;28;20411;-63
2022/03/02 04:43:00;;;;;;;14.55;5.57;;;;;;;;;;5051869;28;20055;-64
2022/03/02 04:45:27;;;;;;;9.40;4.57;;;;;;;;;;5051773;28;20025;-64
2022/03/02 04:47:57;;;;;;;10.38;4.43;;;;;;;;;;5051606;28;20396;-64
2022/03/02 04:50:23;;;;;;;16.73;6.78;;;;;;;;;;5050865;28;20032;-64
2022/03/02 04:52:50;;;;;;;19.42;5.45;;;;;;;;;;5046642;28;20052;-64
2022/03/02 04:55:17;;;;;;;13.13;5.00;;;;;;;;;;5036211;28;20034;-64
2022/03/02 04:57:49;;;;;;;23.45;7.10;;;;;;;;;;5032778;28;20448;-64
2022/03/02 05:00:19;;;;;;;12.23;5.70;;;;;;;;;;5051597;28;20440;-64
2022/03/02 05:02:46;;;;;;;13.70;5.10;;;;;;;;;;5045078;28;20500;-63
2022/03/02 05:05:12;;;;;;;15.50;5.60;;;;;;;;;;5050452;28;20092;-64
2022/03/02 05:07:39;;;;;;;18.33;5.90;;;;;;;;;;5047530;28;20393;-64
2022/03/02 05:10:06;;;;;;;12.50;5.18;;;;;;;;;;5037245;28;20455;-64
2022/03/02 05:12:33;;;;;;;18.25;6.43;;;;;;;;;;5045342;28;20103;-64
2022/03/02 05:14:59;;;;;;;12.68;5.57;;;;;;;;;;5035050;28;20029;-63
2022/03/02 05:17:25;;;;;;;22.95;6.38;;;;;;;;;;5045038;28;20087;-63
2022/03/02 05:19:51;;;;;;;17.85;6.78;;;;;;;;;;5035400;28;20520;-63
2022/03/02 05:22:18;;;;;;;16.63;6.03;;;;;;;;;;5035085;28;20386;-63
2022/03/02 05:24:44;;;;;;;19.27;5.90;;;;;;;;;;5037772;28;20017;-63
2022/03/02 05:27:10;;;;;;;18.55;7.40;;;;;;;;;;5040820;28;20020;-64
2022/03/02 05:29:36;;;;;;;13.60;5.35;;;;;;;;;;5053128;28;20036;-63
2022/03/02 05:32:03;;;;;;;11.82;5.40;;;;;;;;;;5050756;28;20030;-63
2022/03/02 05:34:29;;;;;;;15.57;6.22;;;;;;;;;;5034143;28;20025;-63
2022/03/02 05:36:55;;;;;;;13.68;5.70;;;;;;;;;;5040043;28;20028;-63
2022/03/02 05:39:23;;;;;;;15.25;5.80;;;;;;;;;;5040844;28;20031;-63
2022/03/02 05:41:49;;;;;;;18.08;6.75;;;;;;;;;;5046789;28;20405;-63
2022/03/02 05:44:15;;;;;;;12.98;6.00;;;;;;;;;;5041398;28;20052;-63
2022/03/02 05:46:41;;;;;;;25.83;9.55;;;;;;;;;;5037201;28;20029;-63
2022/03/02 05:49:08;;;;;;;23.35;9.70;;;;;;;;;;5038144;28;20025;-63
2022/03/02 05:51:34;;;;;;;21.08;8.95;;;;;;;;;;5042319;28;20029;-63
2022/03/02 05:54:00;;;;;;;35.78;14.00;;;;;;;;;;5046780;28;20039;-63
2022/03/02 05:56:27;;;;;;;38.10;16.50;;;;;;;;;;5049888;28;20047;-63
2022/03/02 05:58:53;;;;;;;42.00;15.27;;;;;;;;;;5041956;28;20038;-63
2022/03/02 06:01:20;;;;;;;33.83;15.10;;;;;;;;;;5036268;28;20037;-63
2022/03/02 06:03:47;;;;;;;26.48;12.80;;;;;;;;;;5043725;28;20025;-63
2022/03/02 06:06:13;;;;;;;25.13;11.10;;;;;;;;;;5036978;28;20020;-63
2022/03/02 06:08:40;;;;;;;18.63;9.07;;;;;;;;;;5053940;28;20025;-63
2022/03/02 06:11:06;;;;;;;21.90;8.30;;;;;;;;;;5037860;28;20041;-63
2022/03/02 06:13:34;;;;;;;20.95;8.90;;;;;;;;;;5047553;28;20033;-63
2022/03/02 06:16:00;;;;;;;17.58;6.93;;;;;;;;;;5044536;28;20396;-63
2022/03/02 06:18:26;;;;;;;24.73;7.43;;;;;;;;;;5039515;28;20021;-63
2022/03/02 06:20:55;;;;;;;22.48;7.50;;;;;;;;;;5043459;28;20095;-64
2022/03/02 06:23:22;;;;;;;18.70;7.38;;;;;;;;;;5033967;28;20034;-64
2022/03/02 06:25:48;;;;;;;15.57;7.18;;;;;;;;;;5049813;28;20033;-64
2022/03/02 06:28:15;;;;;;;14.52;6.38;;;;;;;;;;5045527;28;20030;-64
2022/03/02 06:30:41;;;;;;;16.08;7.10;;;;;;;;;;5041900;28;20071;-63
2022/03/02 06:33:08;;;;;;;16.98;7.45;;;;;;;;;;5041287;28;20489;-63
2022/03/02 06:35:34;;;;;;;14.15;6.70;;;;;;;;;;5035789;28;20040;-63
2022/03/02 06:38:00;;;;;;;16.60;7.68;;;;;;;;;;5039956;28;20079;-64
2022/03/02 06:40:27;;;;;;;21.10;8.20;;;;;;;;;;5034090;28;20041;-63
2022/03/02 06:43:00;;;;;;;17.88;8.15;;;;;;;;;;5042555;28;20043;-64
2022/03/02 06:45:45;;;;;;;14.88;7.40;;;;;;;;;;5046607;28;20120;-64
2022/03/02 06:48:12;;;;;;;24.42;8.02;;;;;;;;;;5036955;28;20033;-63
2022/03/02 06:50:41;;;;;;;21.13;8.02;;;;;;;;;;5039926;28;20064;-63
2022/03/02 06:53:11;;;;;;;20.85;7.43;;;;;;;;;;5040797;28;20086;-63
2022/03/02 06:55:39;;;;;;;17.45;8.13;;;;;;;;;;5043952;28;20032;-62
2022/03/02 06:58:07;;;;;;;22.10;8.10;;;;;;;;;;5035299;28;20036;-62
2022/03/02 07:00:34;;;;;;;20.83;7.43;;;;;;;;;;5041908;28;20036;-63
2022/03/02 07:03:03;;;;;;;17.75;7.10;;;;;;;;;;5034642;28;20033;-63
2022/03/02 07:05:30;;;;;;;23.70;7.20;;;;;;;;;;5031588;28;20037;-63
2022/03/02 07:07:56;;;;;;;18.25;8.13;;;;;;;;;;5032457;28;20425;-63
2022/03/02 07:10:22;;;;;;;18.08;8.50;;;;;;;;;;5033301;28;20508;-63
2022/03/02 07:12:48;;;;;;;19.08;7.30;;;;;;;;;;5032872;28;20056;-63
2022/03/02 07:15:14;;;;;;;16.88;6.32;;;;;;;;;;5032490;28;20053;-63
2022/03/02 07:17:41;;;;;;;13.85;7.10;;;;;;;;;;5051363;28;20431;-63
2022/03/02 07:20:08;;;;;;;18.25;7.10;;;;;;;;;;5052016;28;20389;-63
2022/03/02 07:22:36;;;;;;;15.73;7.38;;;;;;;;;;5033926;28;20170;-63
2022/03/02 07:25:05;;;;;;;20.15;7.80;;;;;;;;;;5032369;28;20040;-63
2022/03/02 07:27:31;;;;;;;19.27;9.18;;;;;;;;;;5032211;28;20112;-63
2022/03/02 07:29:57;;;;;;;16.10;7.32;;;;;;;;;;5032435;28;20036;-63
2022/03/02 07:32:26;;;;;;;23.98;7.95;;;;;;;;;;5032418;28;20029;-63
2022/03/02 07:34:56;;;;;;;17.98;7.68;;;;;;;;;;5041448;28;20098;-63
2022/03/02 07:37:23;;;;;;;17.85;7.13;;;;;;;;;;5039151;28;20057;-63
2022/03/02 07:39:49;;;;;;;21.98;8.10;;;;;;;;;;5032447;28;20029;-63
2022/03/02 07:42:15;;;;;;;21.58;7.65;;;;;;;;;;5032284;28;20108;-63
2022/03/02 07:44:42;;;;;;;16.65;8.02;;;;;;;;;;5032717;28;20021;-63
2022/03/02 07:47:08;;;;;;;24.23;7.35;;;;;;;;;;5043744;28;20043;-63
2022/03/02 07:49:35;;;;;;;18.50;7.07;;;;;;;;;;5040127;28;20464;-65
2022/03/02 07:52:05;;;;;;;17.98;6.90;;;;;;;;;;5049560;28;20072;-65
2022/03/02 07:54:31;;;;;;;22.67;7.95;;;;;;;;;;5038344;28;20024;-65
2022/03/02 07:56:58;;;;;;;20.60;8.02;;;;;;;;;;5048116;28;20074;-65
2022/03/02 07:59:25;;;;;;;18.88;7.22;;;;;;;;;;5031834;28;20545;-65
2022/03/02 08:01:52;;;;;;;14.95;7.45;;;;;;;;;;5038227;28;20041;-65
2022/03/02 08:04:18;;;;;;;20.45;7.78;;;;;;;;;;5039354;28;20033;-65
2022/03/02 08:06:44;;;;;;;16.58;6.78;;;;;;;;;;5048380;28;20040;-65
2022/03/02 08:09:12;;;;;;;22.17;7.03;;;;;;;;;;5039221;28;20029;-65
2022/03/02 08:11:38;;;;;;;17.80;7.57;;;;;;;;;;5044582;28;20055;-65
2022/03/02 08:14:05;;;;;;;14.32;7.20;;;;;;;;;;5034177;28;20036;-65
2022/03/02 08:16:32;;;;;;;17.23;7.32;;;;;;;;;;5038883;28;20025;-65
2022/03/02 08:19:00;;;;;;;18.73;7.38;;;;;;;;;;5037775;28;20102;-65
2022/03/02 08:21:33;;;;;;;16.85;7.10;;;;;;;;;;5035985;28;20095;-65
2022/03/02 08:24:02;;;;;;;13.05;6.80;;;;;;;;;;5037487;28;20029;-65
2022/03/02 08:26:30;;;;;;;15.15;7.05;;;;;;;;;;5041379;28;20492;-65
2022/03/02 08:29:00;;;;;;;18.10;6.85;;;;;;;;;;5043160;28;20539;-65
2022/03/02 08:31:27;;;;;;;23.80;8.85;;;;;;;;;;5042156;28;20025;-65
2022/03/02 08:33:54;;;;;;;14.93;7.40;;;;;;;;;;5040119;28;20025;-65
2022/03/02 08:36:21;;;;;;;17.42;6.85;;;;;;;;;;5038662;28;20033;-65
2022/03/02 08:38:50;;;;;;;23.92;6.95;;;;;;;;;;5037677;28;20481;-65
2022/03/02 08:41:17;;;;;;;20.90;7.28;;;;;;;;;;5047400;28;20127;-65
2022/03/02 08:43:44;;;;;;;19.45;8.00;;;;;;;;;;5053945;28;20116;-65
2022/03/02 08:46:10;;;;;;;13.93;6.88;;;;;;;;;;5042799;28;20112;-65
2022/03/02 08:48:36;;;;;;;19.88;8.63;;;;;;;;;;5048252;28;20549;-65
2022/03/02 08:51:02;;;;;;;20.45;8.43;;;;;;;;;;5042839;28;20036;-65
2022/03/02 08:53:30;;;;;;;21.00;8.13;;;;;;;;;;5045732;28;20042;-65
2022/03/02 08:55:58;;;;;;;19.83;7.90;;;;;;;;;;5037676;28;20025;-65
2022/03/02 08:58:26;;;;;;;17.73;8.73;;;;;;;;;;5046943;28;20075;-65
2022/03/02 09:00:53;;;;;;;24.23;9.38;;;;;;;;;;5040502;28;20076;-65
2022/03/02 09:03:21;;;;;;;23.15;9.00;;;;;;;;;;5045947;28;20476;-65
2022/03/02 09:05:48;;;;;;;19.30;8.50;;;;;;;;;;5048209;28;20025;-65
2022/03/02 09:08:15;;;;;;;18.65;8.20;;;;;;;;;;5048614;28;20024;-65
2022/03/02 09:10:42;;;;;;;22.08;8.57;;;;;;;;;;5039438;28;20074;-65
2022/03/02 09:13:10;;;;;;;17.05;8.60;;;;;;;;;;5040795;28;20024;-65
2022/03/02 09:15:37;;;;;;;16.67;8.73;;;;;;;;;;5052996;28;20497;-65
2022/03/02 09:18:07;;;;;;;18.25;8.73;;;;;;;;;;5041303;28;20079;-65
2022/03/02 09:20:33;;;;;;;16.00;8.18;;;;;;;;;;5040040;28;20041;-65
2022/03/02 09:23:04;;;;;;;17.70;7.93;;;;;;;;;;5041069;28;20096;-65
2022/03/02 09:25:31;;;;;;;17.10;7.93;;;;;;;;;;5040138;28;20060;-65
2022/03/02 09:27:58;;;;;;;16.85;7.38;;;;;;;;;;5042762;28;20059;-65
2022/03/02 09:30:24;;;;;;;15.57;8.15;;;;;;;;;;5038212;28;20068;-65
2022/03/02 09:32:54;;;;;;;16.45;8.00;;;;;;;;;;5043645;28;20029;-65
2022/03/02 09:35:21;;;;;;;16.42;6.75;;;;;;;;;;5039784;28;20028;-65
2022/03/02 09:37:53;;;;;;;13.23;7.72;;;;;;;;;;5044901;28;20435;-65
2022/03/02 09:40:30;;;;;;;15.17;6.87;;;;;;;;;;5041213;28;20110;-65
2022/03/02 09:42:57;;;;;;;16.35;6.57;;;;;;;;;;5040036;28;20024;-65
2022/03/02 09:45:25;;;;;;;12.10;6.20;;;;;;;;;;5046330;28;20072;-65
2022/03/02 09:47:53;;;;;;;10.73;6.13;;;;;;;;;;5045877;28;20032;-65
2022/03/02 09:50:20;;;;;;;13.48;6.22;;;;;;;;;;5047986;28;20029;-65
2022/03/02 09:52:47;;;;;;;15.65;7.05;;;;;;;;;;5047181;28;20037;-65
2022/03/02 09:55:14;;;;;;;14.13;7.00;;;;;;;;;;5044977;28;20031;-65
2022/03/02 09:57:45;;;;;;;11.30;5.75;;;;;;;;;;5041142;28;20033;-65
2022/03/02 10:00:13;;;;;;;12.50;6.00;;;;;;;;;;5042252;28;20036;-65
2022/03/02 10:02:40;;;;;;;13.18;5.97;;;;;;;;;;5045098;28;20025;-65
2022/03/02 10:05:08;;;;;;;9.63;5.30;;;;;;;;;;5041565;28;20075;-65
2022/03/02 10:07:36;;;;;;;11.27;5.03;;;;;;;;;;5037944;28;20029;-65
2022/03/02 10:10:13;;;;;;;9.05;5.22;;;;;;;;;;5038456;28;20031;-65
2022/03/02 10:12:40;;;;;;;9.82;5.05;;;;;;;;;;5039927;28;20045;-65
2022/03/02 10:15:08;;;;;;;6.78;3.90;;;;;;;;;;5035242;28;20031;-65
2022/03/02 10:17:36;;;;;;;7.80;3.58;;;;;;;;;;5042462;28;20032;-65
2022/03/02 10:20:23;;;;;;;6.63;3.92;;;;;;;;;;5041408;28;20052;-65
2022/03/02 10:22:55;;;;;;;5.65;2.90;;;;;;;;;;5045524;28;20037;-65
2022/03/02 10:25:26;;;;;;;8.73;3.45;;;;;;;;;;5041901;28;20393;-65
2022/03/02 10:27:52;;;;;;;5.35;2.90;;;;;;;;;;5048155;28;20026;-65
2022/03/02 10:30:18;;;;;;;7.20;3.13;;;;;;;;;;5041213;28;20028;-65
2022/03/02 10:32:48;;;;;;;10.50;2.70;;;;;;;;;;5040830;28;20026;-65
2022/03/02 10:35:21;;;;;;;8.30;2.30;;;;;;;;;;5034894;28;20029;-65
2022/03/02 10:37:47;;;;;;;4.47;2.40;;;;;;;;;;5040795;28;20378;-65
2022/03/02 10:40:18;;;;;;;5.03;2.20;;;;;;;;;;5037990;28;20041;-65
2022/03/02 10:42:56;;;;;;;4.60;2.20;;;;;;;;;;5038327;28;20476;-65
2022/03/02 10:45:27;;;;;;;3.83;2.17;;;;;;;;;;5037459;28;20631;-65
2022/03/02 10:47:53;;;;;;;2.65;1.90;;;;;;;;;;5038133;28;20026;-65
2022/03/02 10:50:20;;;;;;;3.60;1.85;;;;;;;;;;5034327;28;20048;-65
2022/03/02 10:52:47;;;;;;;3.58;2.10;;;;;;;;;;5040811;28;20031;-65
2022/03/02 10:55:14;;;;;;;4.80;1.90;;;;;;;;;;5034557;28;20623;-65
2022/03/02 10:57:40;;;;;;;3.72;2.00;;;;;;;;;;5040120;28;20029;-65
2022/03/02 11:00:17;;;;;;;2.65;1.75;;;;;;;;;;5036246;28;20029;-65
2022/03/02 11:02:48;;;;;;;2.75;1.70;;;;;;;;;;5042189;28;20041;-65
2022/03/02 11:05:17;;;;;;;5.55;1.58;;;;;;;;;;5032892;28;20095;-65
2022/03/02 11:07:43;;;;;;;5.25;1.73;;;;;;;;;;5039251;28;20075;-65
2022/03/02 11:10:11;;;;;;;3.72;1.52;;;;;;;;;;5035829;28;20040;-65
2022/03/02 11:12:42;;;;;;;3.72;1.90;;;;;;;;;;5039400;28;20073;-65
2022/03/02 11:15:09;;;;;;;4.03;2.13;;;;;;;;;;5040113;28;20473;-65
2022/03/02 11:17:36;;;;;;;3.05;1.42;;;;;;;;;;5036865;28;20392;-66
2022/03/02 11:20:10;;;;;;;7.43;2.22;;;;;;;;;;5040406;28;20034;-65
2022/03/02 11:22:36;;;;;;;3.55;1.55;;;;;;;;;;5035304;28;20543;-65
2022/03/02 11:25:03;;;;;;;1.98;1.60;;;;;;;;;;5041718;28;20029;-65
2022/03/02 11:27:31;;;;;;;3.20;1.80;;;;;;;;;;5034045;28;20054;-65
2022/03/02 11:30:05;;;;;;;1.25;1.15;;;;;;;;;;5034497;28;20026;-65
2022/03/02 11:32:50;;;;;;;4.40;1.30;;;;;;;;;;5033865;28;20128;-65
2022/03/02 11:35:18;;;;;;;1.73;1.55;;;;;;;;;;5036451;28;20033;-65
2022/03/02 11:37:44;;;;;;;2.72;1.17;;;;;;;;;;5037442;28;20060;-65
2022/03/02 11:40:12;;;;;;;5.07;1.25;;;;;;;;;;5041155;28;20034;-66
2022/03/02 11:42:40;;;;;;;4.47;1.42;;;;;;;;;;5039144;28;20040;-65
2022/03/02 11:45:07;;;;;;;4.25;1.30;;;;;;;;;;5038579;28;20021;-65
2022/03/02 11:47:35;;;;;;;3.20;1.15;;;;;;;;;;5044778;28;20426;-65
2022/03/02 11:50:01;;;;;;;2.50;1.60;;;;;;;;;;5033495;28;20105;-65
2022/03/02 11:52:29;;;;;;;2.97;1.67;;;;;;;;;;5034077;28;20037;-65
2022/03/02 11:55:06;;;;;;;2.65;1.27;;;;;;;;;;5039429;28;20062;-65
2022/03/02 11:57:39;;;;;;;2.33;1.40;;;;;;;;;;5037390;28;20125;-65
2022/03/02 12:00:17;;;;;;;3.97;1.40;;;;;;;;;;5036186;28;20107;-65
2022/03/02 12:02:45;;;;;;;4.03;1.77;;;;;;;;;;5038888;28;20057;-65
2022/03/02 12:05:12;;;;;;;5.00;1.83;;;;;;;;;;5035458;28;20033;-65
2022/03/02 12:07:38;;;;;;;3.08;1.38;;;;;;;;;;5039785;28;20020;-65
2022/03/02 12:10:05;;;;;;;2.72;1.63;;;;;;;;;;5036509;28;20033;-65
2022/03/02 12:12:40;;;;;;;2.60;1.38;;;;;;;;;;5043876;28;20044;-65
2022/03/02 12:15:06;;;;;;;4.72;1.13;;;;;;;;;;5039699;28;20026;-65
2022/03/02 12:17:36;;;;;;;4.50;1.77;;;;;;;;;;5043791;28;20032;-65
2022/03/02 12:20:07;;;;;;;2.30;1.10;;;;;;;;;;5040962;28;20389;-65
2022/03/02 12:22:34;;;;;;;2.95;1.10;;;;;;;;;;5045455;28;20042;-65
2022/03/02 12:25:02;;;;;;;5.97;1.60;;;;;;;;;;5036082;28;20064;-65
2022/03/02 12:27:28;;;;;;;1.77;1.38;;;;;;;;;;5041677;28;20025;-65
2022/03/02 12:29:56;;;;;;;1.35;0.93;;;;;;;;;;5041236;28;20021;-65
2022/03/02 12:32:22;;;;;;;2.25;1.48;;;;;;;;;;5038638;28;20030;-65
2022/03/02 12:34:52;;;;;;;3.20;1.52;;;;;;;;;;5038218;28;20041;-65
2022/03/02 12:37:19;;;;;;;4.82;1.27;;;;;;;;;;5039257;28;20057;-64
2022/03/02 12:39:47;;;;;;;1.85;0.98;;;;;;;;;;5039394;28;20029;-64
2022/03/02 12:42:13;;;;;;;1.83;1.23;;;;;;;;;;5042863;28;20048;-64
2022/03/02 12:44:44;;;;;;;1.42;0.90;;;;;;;;;;5039741;28;20175;-64
2022/03/02 12:47:11;;;;;;;1.40;1.00;;;;;;;;;;5048026;28;20029;-64
2022/03/02 12:49:39;;;;;;;2.42;1.00;;;;;;;;;;5050719;28;20094;-64
2022/03/02 12:52:06;;;;;;;2.17;1.30;;;;;;;;;;5040749;28;20501;-64
2022/03/02 12:54:37;;;;;;;2.00;1.02;;;;;;;;;;5048306;28;20038;-64
2022/03/02 12:57:08;;;;;;;2.80;1.33;;;;;;;;;;5041114;28;20108;-64
2022/03/02 12:59:34;;;;;;;3.40;1.08;;;;;;;;;;5039905;28;20048;-65
2022/03/02 13:02:04;;;;;;;2.63;0.82;;;;;;;;;;5036320;28;20048;-64
2022/03/02 13:04:48;;;;;;;2.97;1.30;;;;;;;;;;5040035;28;20037;-64
2022/03/02 13:07:32;;;;;;;4.28;1.10;;;;;;;;;;5036575;28;20040;-64
2022/03/02 13:10:00;;;;;;;4.72;1.20;;;;;;;;;;5040328;28;20710;-64
2022/03/02 13:12:31;;;;;;;2.58;1.20;;;;;;;;;;5041280;28;20513;-64
2022/03/02 13:14:58;;;;;;;2.97;1.25;;;;;;;;;;5038519;28;20033;-64
2022/03/02 13:17:25;;;;;;;2.97;0.68;;;;;;;;;;5042155;28;20040;-64
2022/03/02 13:19:53;;;;;;;1.15;0.70;;;;;;;;;;5039658;28;20087;-64
2022/03/02 13:22:30;;;;;;;1.60;0.90;;;;;;;;;;5040906;28;20032;-64
2022/03/02 13:24:57;;;;;;;1.50;0.60;;;;;;;;;;5037390;28;20075;-64
2022/03/02 13:27:24;;;;;;;0.40;0.40;;;;;;;;;;5042315;28;20023;-64
2022/03/02 13:29:50;;;;;;;4.00;0.70;;;;;;;;;;5041954;28;20034;-64
2022/03/02 13:32:17;;;;;;;3.58;0.60;;;;;;;;;;5040293;28;20057;-64
2022/03/02 13:35:16;;;;;;;1.38;0.40;;;;;;;;;;5038743;28;20064;-64
2022/03/02 13:38:05;;;;;;;1.10;0.38;;;;;;;;;;5001249;28;20101;-64
2022/03/02 13:40:34;;;;;;;0.40;0.40;;;;;;;;;;4992022;28;20093;-64
2022/03/02 13:43:06;;;;;;;2.13;0.50;;;;;;;;;;5001387;28;20409;-64
2022/03/02 13:45:56;;;;;;;2.30;0.40;;;;;;;;;;5001131;28;20026;-64
2022/03/02 13:48:27;;;;;;;3.58;0.60;;;;;;;;;;4994382;28;20422;-64
2022/03/02 13:50:55;;;;;;;1.30;0.70;;;;;;;;;;4998384;28;20034;-64
2022/03/02 13:53:36;;;;;;;0.80;0.50;;;;;;;;;;5002965;28;20507;-64
2022/03/02 13:56:05;;;;;;;1.90;0.68;;;;;;;;;;4998160;28;20033;-64
2022/03/02 13:58:31;;;;;;;3.03;0.70;;;;;;;;;;4999931;28;20068;-64
2022/03/02 14:01:14;;;;;;;1.10;0.70;;;;;;;;;;5001603;28;20090;-64
2022/03/02 14:03:45;;;;;;;1.13;0.52;;;;;;;;;;5000746;28;20052;-64
2022/03/02 14:06:12;;;;;;;0.70;0.70;;;;;;;;;;4999629;28;20096;-64
2022/03/02 14:08:41;;;;;;;2.55;0.80;;;;;;;;;;5001243;28;20030;-64
2022/03/02 14:11:07;;;;;;;2.45;0.93;;;;;;;;;;4999425;28;20050;-64
2022/03/02 14:13:34;;;;;;;2.35;0.50;;;;;;;;;;5025987;28;20045;-64
2022/03/02 14:16:05;;;;;;;3.05;0.85;;;;;;;;;;5043483;28;20021;-64
2022/03/02 14:18:31;;;;;;;1.13;0.75;;;;;;;;;;5040903;28;20444;-64
2022/03/02 14:20:57;;;;;;;3.13;0.90;;;;;;;;;;5041029;28;20489;-64
2022/03/02 14:23:23;;;;;;;4.03;1.23;;;;;;;;;;5039558;28;20037;-64
2022/03/02 14:25:53;;;;;;;4.78;1.02;;;;;;;;;;5041187;28;20022;-64
2022/03/02 14:28:19;;;;;;;3.63;1.02;;;;;;;;;;5043896;28;20032;-64
2022/03/02 14:30:45;;;;;;;2.97;1.13;;;;;;;;;;5038203;28;20041;-64
2022/03/02 14:33:12;;;;;;;3.53;1.00;;;;;;;;;;5043801;28;20043;-64
2022/03/02 14:35:39;;;;;;;2.80;0.88;;;;;;;;;;5044902;28;20025;-64
2022/03/02 14:38:06;;;;;;;2.83;0.90;;;;;;;;;;5042797;28;20029;-64